sensor_id;sensor_type;location;lat;lon;timestamp;pressure;altitude;pressure_sealevel;temperature;humidity
67013;BME280;53926;47.406;19.188;2023-04-01T00:01:13;98980.37;;;7.77;100.00
67013;BME280;53926;47.406;19.188;2023-04-01T00:03:43;98983.88;;;7.82;100.00
67013;BME280;53926;47.406;19.188;2023-04-01T00:06:16;98978.03;;;7.87;100.00
67013;BME280;53926;47.406;19.188;2023-04-01T00:08:43;98974.09;;;7.84;100.00
67013;BME280;53926;47.406;19.188;2023-04-01T00:11:10;98968.19;;;7.77;100.00
67013;BME280;53926;47.406;19.188;2023-04-01T00:13:37;98970.13;;;7.82;100.00
67013;BME280;53926;47.406;19.188;2023-04-01T00:16:04;98963.69;;;7.73;100.00
67013;BME280;53926;47.406;19.188;2023-04-01T00:18:46;98958.94;;;7.69;100.00
67013;BME280;53926;47.406;19.188;2023-04-01T00:21:14;98956.91;;;7.72;100.00
67013;BME280;53926;47.406;19.188;2023-04-01T00:23:40;98952.19;;;7.68;100.00
67013;BME280;53926;47.406;19.188;2023-04-01T00:26:08;98960.38;;;7.65;100.00
67013;BME280;53926;47.406;19.188;2023-04-01T00:28:34;98961.97;;;7.66;100.00
67013;BME280;53926;47.406;19.188;2023-04-01T00:31:10;98959.72;;;7.70;100.00
67013;BME280;53926;47.406;19.188;2023-04-01T00:33:38;98953.66;;;7.64;100.00
67013;BME280;53926;47.406;19.188;2023-04-01T00:36:10;98955.09;;;7.60;100.00
67013;BME280;53926;47.406;19.188;2023-04-01T00:38:38;98939.88;;;7.52;100.00
67013;BME280;53926;47.406;19.188;2023-04-01T00:41:05;98935.34;;;7.47;100.00
67013;BME280;53926;47.406;19.188;2023-04-01T00:43:33;98950.00;;;7.54;100.00
67013;BME280;53926;47.406;19.188;2023-04-01T00:45:59;98949.41;;;7.51;100.00
67013;BME280;53926;47.406;19.188;2023-04-01T00:48:30;98940.31;;;7.49;100.00
67013;BME280;53926;47.406;19.188;2023-04-01T00:51:03;98941.19;;;7.43;100.00
67013;BME280;53926;47.406;19.188;2023-04-01T00:53:32;98948.16;;;7.42;100.00
67013;BME280;53926;47.406;19.188;2023-04-01T00:56:30;98945.78;;;7.41;100.00
67013;BME280;53926;47.406;19.188;2023-04-01T00:59:00;98935.19;;;7.30;100.00
67013;BME280;53926;47.406;19.188;2023-04-01T01:01:29;98939.59;;;7.42;100.00
67013;BME280;53926;47.406;19.188;2023-04-01T01:03:57;98938.31;;;7.32;100.00
67013;BME280;53926;47.406;19.188;2023-04-01T01:06:59;98943.00;;;7.24;100.00
67013;BME280;53926;47.406;19.188;2023-04-01T01:12:24;98941.53;;;7.46;100.00
67013;BME280;53926;47.406;19.188;2023-04-01T01:15:08;98937.72;;;7.49;100.00
67013;BME280;53926;47.406;19.188;2023-04-01T01:17:48;98941.03;;;7.38;100.00
67013;BME280;53926;47.406;19.188;2023-04-01T01:20:30;98944.00;;;7.41;100.00
67013;BME280;53926;47.406;19.188;2023-04-01T01:31:14;98940.13;;;7.32;100.00
67013;BME280;53926;47.406;19.188;2023-04-01T01:36:19;98928.53;;;7.34;100.00
67013;BME280;53926;47.406;19.188;2023-04-01T01:38:48;98930.34;;;7.34;100.00
67013;BME280;53926;47.406;19.188;2023-04-01T01:41:18;98937.31;;;7.33;100.00
67013;BME280;53926;47.406;19.188;2023-04-01T01:43:48;98935.09;;;7.37;100.00
67013;BME280;53926;47.406;19.188;2023-04-01T01:46:21;98933.37;;;7.31;100.00
67013;BME280;53926;47.406;19.188;2023-04-01T01:48:49;98932.81;;;7.29;100.00
67013;BME280;53926;47.406;19.188;2023-04-01T01:51:19;98931.50;;;7.38;100.00
67013;BME280;53926;47.406;19.188;2023-04-01T01:53:46;98930.62;;;7.44;100.00
67013;BME280;53926;47.406;19.188;2023-04-01T01:56:13;98930.38;;;7.46;100.00
67013;BME280;53926;47.406;19.188;2023-04-01T01:58:43;98937.72;;;7.49;100.00
67013;BME280;53926;47.406;19.188;2023-04-01T02:01:14;98930.78;;;7.61;100.00
67013;BME280;53926;47.406;19.188;2023-04-01T02:03:44;98935.25;;;7.54;100.00
67013;BME280;53926;47.406;19.188;2023-04-01T02:06:17;98935.47;;;7.52;100.00
67013;BME280;53926;47.406;19.188;2023-04-01T02:11:19;98934.31;;;7.48;100.00
67013;BME280;53926;47.406;19.188;2023-04-01T02:13:55;98935.56;;;7.46;100.00
67013;BME280;53926;47.406;19.188;2023-04-01T02:16:33;98935.75;;;7.32;100.00
67013;BME280;53926;47.406;19.188;2023-04-01T02:19:02;98928.97;;;7.31;100.00
67013;BME280;53926;47.406;19.188;2023-04-01T02:21:34;98931.84;;;7.42;100.00
67013;BME280;53926;47.406;19.188;2023-04-01T02:24:04;98931.72;;;7.37;100.00
67013;BME280;53926;47.406;19.188;2023-04-01T02:26:32;98921.06;;;7.26;100.00
67013;BME280;53926;47.406;19.188;2023-04-01T02:28:59;98918.63;;;7.31;100.00
67013;BME280;53926;47.406;19.188;2023-04-01T02:31:27;98922.88;;;7.26;100.00
67013;BME280;53926;47.406;19.188;2023-04-01T02:33:55;98924.53;;;7.20;100.00
67013;BME280;53926;47.406;19.188;2023-04-01T02:36:21;98921.53;;;7.23;100.00
67013;BME280;53926;47.406;19.188;2023-04-01T02:38:49;98919.72;;;7.24;100.00
67013;BME280;53926;47.406;19.188;2023-04-01T02:41:17;98915.78;;;7.21;100.00
67013;BME280;53926;47.406;19.188;2023-04-01T02:43:44;98915.19;;;7.19;100.00
67013;BME280;53926;47.406;19.188;2023-04-01T02:46:10;98907.41;;;7.19;100.00
67013;BME280;53926;47.406;19.188;2023-04-01T02:48:37;98915.47;;;7.29;100.00
67013;BME280;53926;47.406;19.188;2023-04-01T02:51:04;98915.03;;;7.32;100.00
67013;BME280;53926;47.406;19.188;2023-04-01T02:53:30;98914.25;;;7.32;100.00
67013;BME280;53926;47.406;19.188;2023-04-01T02:55:57;98911.47;;;7.15;100.00
67013;BME280;53926;47.406;19.188;2023-04-01T02:58:23;98927.72;;;7.04;100.00
67013;BME280;53926;47.406;19.188;2023-04-01T03:00:50;98921.47;;;6.93;100.00
67013;BME280;53926;47.406;19.188;2023-04-01T03:03:17;98930.06;;;6.93;100.00
67013;BME280;53926;47.406;19.188;2023-04-01T03:05:44;98917.34;;;6.92;100.00
67013;BME280;53926;47.406;19.188;2023-04-01T03:08:10;98915.19;;;6.89;100.00
67013;BME280;53926;47.406;19.188;2023-04-01T03:10:38;98916.25;;;6.81;100.00
67013;BME280;53926;47.406;19.188;2023-04-01T03:13:04;98921.44;;;6.81;100.00
67013;BME280;53926;47.406;19.188;2023-04-01T03:15:32;98920.63;;;6.62;100.00
67013;BME280;53926;47.406;19.188;2023-04-01T03:17:59;98920.19;;;6.84;100.00
67013;BME280;53926;47.406;19.188;2023-04-01T03:20:26;98916.06;;;6.64;100.00
67013;BME280;53926;47.406;19.188;2023-04-01T03:22:53;98915.22;;;6.45;100.00
67013;BME280;53926;47.406;19.188;2023-04-01T03:25:19;98906.75;;;6.38;100.00
67013;BME280;53926;47.406;19.188;2023-04-01T03:27:46;98906.59;;;6.33;100.00
67013;BME280;53926;47.406;19.188;2023-04-01T03:30:13;98904.37;;;6.18;100.00
67013;BME280;53926;47.406;19.188;2023-04-01T03:32:39;98914.44;;;5.94;100.00
67013;BME280;53926;47.406;19.188;2023-04-01T03:35:06;98924.22;;;5.92;100.00
67013;BME280;53926;47.406;19.188;2023-04-01T03:37:33;98933.56;;;5.93;100.00
67013;BME280;53926;47.406;19.188;2023-04-01T03:40:00;98938.44;;;6.08;100.00
67013;BME280;53926;47.406;19.188;2023-04-01T03:42:26;98945.12;;;6.16;100.00
67013;BME280;53926;47.406;19.188;2023-04-01T03:44:53;98942.94;;;6.19;100.00
67013;BME280;53926;47.406;19.188;2023-04-01T03:47:20;98937.78;;;6.38;100.00
67013;BME280;53926;47.406;19.188;2023-04-01T03:49:47;98945.69;;;6.43;100.00
67013;BME280;53926;47.406;19.188;2023-04-01T03:52:13;98933.41;;;6.57;100.00
67013;BME280;53926;47.406;19.188;2023-04-01T03:54:40;98928.38;;;6.43;100.00
67013;BME280;53926;47.406;19.188;2023-04-01T03:57:06;98932.25;;;6.34;100.00
67013;BME280;53926;47.406;19.188;2023-04-01T03:59:34;98936.09;;;6.25;100.00
67013;BME280;53926;47.406;19.188;2023-04-01T04:02:00;98942.25;;;6.05;100.00
67013;BME280;53926;47.406;19.188;2023-04-01T04:04:27;98938.91;;;5.98;100.00
67013;BME280;53926;47.406;19.188;2023-04-01T04:06:54;98946.09;;;5.89;100.00
67013;BME280;53926;47.406;19.188;2023-04-01T04:09:22;98952.69;;;5.85;100.00
67013;BME280;53926;47.406;19.188;2023-04-01T04:11:49;98951.03;;;5.91;100.00
67013;BME280;53926;47.406;19.188;2023-04-01T04:14:16;98943.69;;;5.95;100.00
67013;BME280;53926;47.406;19.188;2023-04-01T04:16:43;98944.69;;;5.94;100.00
67013;BME280;53926;47.406;19.188;2023-04-01T04:19:09;98949.31;;;5.85;100.00
67013;BME280;53926;47.406;19.188;2023-04-01T04:21:36;98951.25;;;5.89;100.00
67013;BME280;53926;47.406;19.188;2023-04-01T04:24:03;98939.69;;;5.67;100.00
67013;BME280;53926;47.406;19.188;2023-04-01T04:26:29;98946.44;;;5.68;100.00
67013;BME280;53926;47.406;19.188;2023-04-01T04:28:56;98948.09;;;5.55;100.00
67013;BME280;53926;47.406;19.188;2023-04-01T04:31:24;98943.53;;;5.58;100.00
67013;BME280;53926;47.406;19.188;2023-04-01T04:33:54;98939.25;;;5.38;100.00
67013;BME280;53926;47.406;19.188;2023-04-01T04:36:21;98942.47;;;5.33;100.00
67013;BME280;53926;47.406;19.188;2023-04-01T04:38:48;98934.75;;;5.27;100.00
67013;BME280;53926;47.406;19.188;2023-04-01T04:41:16;98936.53;;;5.33;100.00
67013;BME280;53926;47.406;19.188;2023-04-01T04:43:55;98937.16;;;5.22;100.00
67013;BME280;53926;47.406;19.188;2023-04-01T04:46:22;98930.81;;;5.17;100.00
67013;BME280;53926;47.406;19.188;2023-04-01T04:48:49;98931.34;;;5.33;100.00
67013;BME280;53926;47.406;19.188;2023-04-01T04:51:17;98942.00;;;5.43;100.00
67013;BME280;53926;47.406;19.188;2023-04-01T04:53:45;98937.56;;;5.57;100.00
67013;BME280;53926;47.406;19.188;2023-04-01T04:56:12;98932.31;;;5.70;100.00
67013;BME280;53926;47.406;19.188;2023-04-01T04:58:39;98935.75;;;5.89;100.00
67013;BME280;53926;47.406;19.188;2023-04-01T05:01:10;98932.53;;;6.01;100.00
67013;BME280;53926;47.406;19.188;2023-04-01T05:03:38;98932.91;;;6.04;100.00
67013;BME280;53926;47.406;19.188;2023-04-01T05:06:06;98939.38;;;6.14;100.00
67013;BME280;53926;47.406;19.188;2023-04-01T05:08:33;98932.16;;;6.22;100.00
67013;BME280;53926;47.406;19.188;2023-04-01T05:11:00;98930.81;;;6.38;100.00
67013;BME280;53926;47.406;19.188;2023-04-01T05:13:28;98931.63;;;6.57;100.00
67013;BME280;53926;47.406;19.188;2023-04-01T05:15:55;98936.22;;;6.74;100.00
67013;BME280;53926;47.406;19.188;2023-04-01T05:18:22;98934.63;;;6.91;100.00
67013;BME280;53926;47.406;19.188;2023-04-01T05:20:50;98937.22;;;7.10;100.00
67013;BME280;53926;47.406;19.188;2023-04-01T05:23:17;98935.91;;;7.19;100.00
67013;BME280;53926;47.406;19.188;2023-04-01T05:25:44;98938.97;;;7.28;100.00
67013;BME280;53926;47.406;19.188;2023-04-01T05:28:11;98941.09;;;7.49;100.00
67013;BME280;53926;47.406;19.188;2023-04-01T05:30:42;98941.47;;;7.65;100.00
67013;BME280;53926;47.406;19.188;2023-04-01T05:33:10;98949.28;;;7.77;100.00
67013;BME280;53926;47.406;19.188;2023-04-01T05:35:37;98949.09;;;7.90;100.00
67013;BME280;53926;47.406;19.188;2023-04-01T05:38:04;98956.00;;;8.32;100.00
67013;BME280;53926;47.406;19.188;2023-04-01T05:40:32;98947.09;;;8.63;100.00
67013;BME280;53926;47.406;19.188;2023-04-01T05:42:59;98953.09;;;9.45;100.00
67013;BME280;53926;47.406;19.188;2023-04-01T05:45:27;98941.97;;;10.12;100.00
67013;BME280;53926;47.406;19.188;2023-04-01T05:47:53;98932.56;;;10.45;100.00
67013;BME280;53926;47.406;19.188;2023-04-01T05:50:20;98930.53;;;10.91;100.00
67013;BME280;53926;47.406;19.188;2023-04-01T05:52:47;98931.47;;;11.89;100.00
67013;BME280;53926;47.406;19.188;2023-04-01T05:55:13;98936.63;;;12.59;100.00
67013;BME280;53926;47.406;19.188;2023-04-01T05:57:40;98935.31;;;12.57;100.00
67013;BME280;53926;47.406;19.188;2023-04-01T06:00:08;98930.84;;;12.52;100.00
67013;BME280;53926;47.406;19.188;2023-04-01T06:02:35;98934.53;;;12.61;100.00
67013;BME280;53926;47.406;19.188;2023-04-01T06:05:13;98933.16;;;13.12;100.00
67013;BME280;53926;47.406;19.188;2023-04-01T06:07:41;98939.38;;;12.85;100.00
67013;BME280;53926;47.406;19.188;2023-04-01T06:10:18;98938.28;;;12.81;100.00
67013;BME280;53926;47.406;19.188;2023-04-01T06:15:32;98933.13;;;13.01;100.00
67013;BME280;53926;47.406;19.188;2023-04-01T06:26:39;98926.72;;;11.21;100.00
67013;BME280;53926;47.406;19.188;2023-04-01T06:32:24;98923.59;;;11.52;100.00
67013;BME280;53926;47.406;19.188;2023-04-01T06:40:35;98938.50;;;11.56;100.00
67013;BME280;53926;47.406;19.188;2023-04-01T06:43:16;98936.81;;;11.72;100.00
67013;BME280;53926;47.406;19.188;2023-04-01T06:48:29;98948.66;;;11.58;100.00
67013;BME280;53926;47.406;19.188;2023-04-01T06:54:12;98951.09;;;12.77;100.00
67013;BME280;53926;47.406;19.188;2023-04-01T06:56:45;98946.31;;;13.32;97.49
67013;BME280;53926;47.406;19.188;2023-04-01T06:59:17;98944.25;;;14.01;95.51
67013;BME280;53926;47.406;19.188;2023-04-01T07:01:45;98948.47;;;13.71;93.91
67013;BME280;53926;47.406;19.188;2023-04-01T07:04:19;98941.63;;;13.39;93.47
67013;BME280;53926;47.406;19.188;2023-04-01T07:06:52;98946.12;;;13.95;85.94
67013;BME280;53926;47.406;19.188;2023-04-01T07:09:35;98949.16;;;13.20;95.42
67013;BME280;53926;47.406;19.188;2023-04-01T07:12:11;98945.84;;;13.71;91.50
67013;BME280;53926;47.406;19.188;2023-04-01T07:14:41;98940.03;;;13.33;87.26
67013;BME280;53926;47.406;19.188;2023-04-01T07:17:15;98945.75;;;13.30;83.61
67013;BME280;53926;47.406;19.188;2023-04-01T07:20:05;98951.38;;;12.86;87.88
67013;BME280;53926;47.406;19.188;2023-04-01T07:22:43;98950.19;;;13.19;87.46
67013;BME280;53926;47.406;19.188;2023-04-01T07:25:17;98951.84;;;13.56;87.40
67013;BME280;53926;47.406;19.188;2023-04-01T07:27:45;98957.22;;;13.14;85.72
67013;BME280;53926;47.406;19.188;2023-04-01T07:30:22;98958.88;;;13.40;86.39
67013;BME280;53926;47.406;19.188;2023-04-01T07:33:22;98951.59;;;14.09;81.04
67013;BME280;53926;47.406;19.188;2023-04-01T07:35:59;98947.88;;;13.33;81.47
67013;BME280;53926;47.406;19.188;2023-04-01T07:57:07;98942.88;;;14.60;76.11
67013;BME280;53926;47.406;19.188;2023-04-01T07:59:49;98951.00;;;14.48;75.78
67013;BME280;53926;47.406;19.188;2023-04-01T08:02:30;98944.94;;;15.68;71.12
67013;BME280;53926;47.406;19.188;2023-04-01T08:05:53;98942.97;;;15.05;71.96
67013;BME280;53926;47.406;19.188;2023-04-01T08:10:49;98952.88;;;15.98;66.11
67013;BME280;53926;47.406;19.188;2023-04-01T08:13:48;98953.03;;;15.32;65.14
67013;BME280;53926;47.406;19.188;2023-04-01T08:16:24;98952.03;;;15.23;65.14
67013;BME280;53926;47.406;19.188;2023-04-01T08:19:13;98953.88;;;16.79;60.82
67013;BME280;53926;47.406;19.188;2023-04-01T08:21:45;98955.50;;;17.00;60.96
67013;BME280;53926;47.406;19.188;2023-04-01T08:24:41;98943.03;;;15.79;59.92
67013;BME280;53926;47.406;19.188;2023-04-01T08:30:28;98953.69;;;15.93;65.21
67013;BME280;53926;47.406;19.188;2023-04-01T08:33:09;98965.56;;;16.44;59.16
67013;BME280;53926;47.406;19.188;2023-04-01T08:35:48;98957.00;;;17.25;56.78
67013;BME280;53926;47.406;19.188;2023-04-01T08:41:01;98953.00;;;17.65;58.81
67013;BME280;53926;47.406;19.188;2023-04-01T08:46:34;98972.06;;;17.38;54.18
67013;BME280;53926;47.406;19.188;2023-04-01T08:49:37;98955.81;;;16.44;58.73
67013;BME280;53926;47.406;19.188;2023-04-01T08:52:37;98954.56;;;16.13;58.21
